Time;durP1;ratioP1;P1;durP2;ratioP2;P2;SDS_P1;SDS_P2;PMS_P1;PMS_P2;Temp;Humidity;BMP_temperature;BMP_pressure;BME280_temperature;BME280_humidity;BME280_pressure;Samples;Min_cycle;Max_cycle;Signal;HPM_P1;HPM_P2
2022/06/08 00:00:48;;;;;;;6.40;4.10;;;;;;;11.81;100.00;96545.38;5011786;28;20049;-68
2022/06/08 00:03:18;;;;;;;4.57;3.45;;;;;;;11.78;100.00;96546.91;5008841;28;20037;-68
2022/06/08 00:05:43;;;;;;;;;;;;;;;11.94;100.00;96543.16;5002432;28;20047;-65
2022/06/08 00:08:09;;;;;;;7.37;3.70;;;;;;;11.96;100.00;96544.38;4997350;28;20314;-66
2022/06/08 00:10:35;;;;;;;7.03;3.80;;;;;;;11.98;100.00;96535.75;5000706;28;20289;-65
2022/06/08 00:13:00;;;;;;;7.20;3.95;;;;;;;12.01;100.00;96535.78;4982576;28;20487;-66
2022/06/08 00:15:26;;;;;;;6.10;3.60;;;;;;;12.05;100.00;96542.09;4995119;28;20049;-67
2022/06/08 00:17:52;;;;;;;5.93;3.53;;;;;;;12.00;100.00;96534.19;5011876;28;20048;-66
2022/06/08 00:20:17;;;;;;;5.00;3.88;;;;;;;11.82;100.00;96530.50;5008468;28;20038;-68
2022/06/08 00:22:43;;;;;;;6.88;4.20;;;;;;;11.83;100.00;96537.56;5016624;28;20510;-68
2022/06/08 00:25:09;;;;;;;5.30;3.58;;;;;;;11.84;100.00;96526.19;5014791;28;20132;-68
2022/06/08 00:27:35;;;;;;;6.03;4.10;;;;;;;12.03;100.00;96530.69;5018851;28;20081;-68
2022/06/08 00:30:00;;;;;;;6.57;4.32;;;;;;;11.89;100.00;96527.81;5015476;28;20470;-68
2022/06/08 00:32:26;;;;;;;4.75;3.40;;;;;;;11.90;100.00;96520.34;5004595;28;20042;-68
2022/06/08 00:34:51;;;;;;;4.03;3.30;;;;;;;11.82;100.00;96519.50;5002143;28;20406;-68
2022/06/08 00:37:17;;;;;;;6.95;3.80;;;;;;;11.80;100.00;96519.09;4994361;28;20045;-68
2022/06/08 00:39:42;;;;;;;7.70;3.65;;;;;;;11.72;100.00;96511.97;4999913;28;20041;-66
2022/06/08 00:42:11;;;;;;;5.95;3.72;;;;;;;11.66;100.00;96506.81;4995259;28;20545;-67
2022/06/08 00:44:42;;;;;;;5.03;3.17;;;;;;;11.79;100.00;96509.28;5001143;28;20089;-66
2022/06/08 00:47:12;;;;;;;4.95;3.85;;;;;;;11.67;100.00;96511.16;4993263;28;20188;-66
2022/06/08 00:49:41;;;;;;;8.35;3.35;;;;;;;11.75;100.00;96513.97;5001759;28;20129;-67
2022/06/08 00:52:08;;;;;;;8.68;3.05;;;;;;;11.73;100.00;96514.34;4993189;28;20052;-66
2022/06/08 00:54:41;;;;;;;7.10;3.92;;;;;;;11.63;100.00;96507.59;5000395;28;20046;-68
2022/06/08 00:57:25;;;;;;;4.97;3.10;;;;;;;11.57;100.00;96505.56;5007646;28;20108;-68
2022/06/08 00:59:58;;;;;;;7.32;3.70;;;;;;;11.55;100.00;96502.44;5007959;28;20581;-69
2022/06/08 01:02:24;;;;;;;6.60;3.50;;;;;;;11.56;100.00;96502.06;4994534;28;20135;-69
2022/06/08 01:04:49;;;;;;;5.95;3.88;;;;;;;11.68;100.00;96495.47;5001487;28;20086;-68
2022/06/08 01:07:19;;;;;;;6.38;3.22;;;;;;;11.82;100.00;96492.84;4995986;28;20045;-68
2022/06/08 01:09:45;;;;;;;3.90;3.17;;;;;;;11.78;100.00;96496.75;5002053;28;20525;-67
2022/06/08 01:12:17;;;;;;;8.02;3.10;;;;;;;11.78;100.00;96492.03;4998166;28;20046;-68
2022/06/08 01:14:43;;;;;;;5.55;3.42;;;;;;;11.90;100.00;96480.00;5004303;28;20399;-68
2022/06/08 01:17:13;;;;;;;4.78;3.08;;;;;;;11.79;100.00;96490.88;4997271;28;20382;-67
2022/06/08 01:19:44;;;;;;;4.97;3.22;;;;;;;11.69;100.00;96479.81;5000747;28;20041;-68
2022/06/08 01:22:12;;;;;;;6.00;3.42;;;;;;;11.71;100.00;96474.75;5002615;28;20083;-67
2022/06/08 01:24:39;;;;;;;8.50;3.28;;;;;;;11.80;100.00;96472.47;5004417;28;20045;-67
2022/06/08 01:27:12;;;;;;;12.10;4.13;;;;;;;11.83;100.00;96467.00;4997059;28;20068;-65
2022/06/08 01:30:02;;;;;;;6.93;3.10;;;;;;;11.60;100.00;96463.69;5003090;28;20464;-65
2022/06/08 01:32:55;;;;;;;7.07;3.67;;;;;;;11.47;100.00;96466.69;5001806;28;20049;-68
2022/06/08 01:35:29;;;;;;;8.45;3.35;;;;;;;11.56;100.00;96460.91;4990085;28;20049;-68
2022/06/08 01:38:17;;;;;;;4.35;3.45;;;;;;;11.50;100.00;96456.91;5001002;28;20038;-69
2022/06/08 01:40:54;;;;;;;5.53;3.25;;;;;;;11.56;100.00;96452.69;5000933;28;20037;-67
2022/06/08 01:43:50;;;;;;;4.18;3.00;;;;;;;11.44;100.00;96447.47;4996340;28;20050;-66
2022/06/08 01:46:17;;;;;;;4.80;3.55;;;;;;;11.33;100.00;96452.88;5001351;28;20050;-69
2022/06/08 01:49:01;;;;;;;5.18;3.67;;;;;;;11.26;100.00;96447.31;5015142;28;20525;-67
2022/06/08 01:51:51;;;;;;;4.55;2.83;;;;;;;11.38;100.00;96446.22;4996943;28;20050;-67
2022/06/08 01:54:52;;;;;;;4.60;3.00;;;;;;;11.28;100.00;96445.75;4995181;28;20030;-68
2022/06/08 01:58:03;;;;;;;5.88;3.40;;;;;;;11.28;100.00;96442.25;4990193;28;20133;-66
2022/06/08 02:00:33;;;;;;;3.80;3.25;;;;;;;11.44;100.00;96439.25;5020724;28;20042;-66
2022/06/08 02:03:20;;;;;;;4.75;3.50;;;;;;;11.37;100.00;96434.47;5016072;28;20125;-67
2022/06/08 02:06:01;;;;;;;4.05;3.00;;;;;;;11.38;100.00;96436.06;5001184;28;20042;-66
2022/06/08 02:08:42;;;;;;;4.47;3.20;;;;;;;11.47;100.00;96433.00;4995323;28;20049;-67
2022/06/08 02:11:19;;;;;;;3.83;2.97;;;;;;;11.41;100.00;96427.06;4987906;28;20191;-64
2022/06/08 02:13:53;;;;;;;3.50;2.70;;;;;;;11.49;100.00;96422.44;5002004;28;20046;-67
2022/06/08 02:16:22;;;;;;;4.78;2.70;;;;;;;11.54;100.00;96418.56;4994214;28;20070;-68
2022/06/08 02:19:01;;;;;;;5.57;3.10;;;;;;;11.42;100.00;96425.13;5001878;28;20038;-68
2022/06/08 02:21:34;;;;;;;4.47;2.63;;;;;;;11.25;100.00;96424.59;5002237;28;20037;-66
2022/06/08 02:24:05;;;;;;;3.05;2.30;;;;;;;11.09;100.00;96427.56;5012034;28;20050;-68
2022/06/08 02:26:46;;;;;;;4.50;2.22;;;;;;;11.05;100.00;96421.25;4998605;28;20085;-67
2022/06/08 02:29:17;;;;;;;4.28;2.20;;;;;;;11.18;100.00;96423.72;4994300;28;20045;-66
2022/06/08 02:31:49;;;;;;;5.40;2.47;;;;;;;11.31;100.00;96414.06;5002501;28;20049;-68
2022/06/08 02:34:31;;;;;;;4.35;2.38;;;;;;;11.41;100.00;96421.59;4995457;28;20151;-68
2022/06/08 02:37:00;;;;;;;2.60;2.15;;;;;;;11.51;100.00;96424.81;4999531;28;20045;-68
2022/06/08 02:39:38;;;;;;;5.00;2.40;;;;;;;11.67;100.00;96417.88;4994885;28;20529;-67
2022/06/08 02:42:10;;;;;;;3.40;2.50;;;;;;;11.73;100.00;96420.28;4997500;28;20277;-65
2022/06/08 02:44:38;;;;;;;4.03;1.98;;;;;;;11.66;100.00;96415.53;5000722;28;20050;-66
2022/06/08 02:47:09;;;;;;;4.15;2.03;;;;;;;11.51;100.00;96422.84;4993379;28;20411;-64
2022/06/08 02:49:36;;;;;;;2.38;1.75;;;;;;;11.51;100.00;96416.59;5001566;28;20046;-67
2022/06/08 02:52:15;;;;;;;3.40;2.10;;;;;;;11.25;100.00;96419.13;5001661;28;20034;-69
2022/06/08 02:54:40;;;;;;;3.95;2.00;;;;;;;11.09;100.00;96416.63;4995093;28;20038;-67
2022/06/08 02:57:24;;;;;;;2.75;1.80;;;;;;;11.18;100.00;96419.06;4995471;28;20129;-68
2022/06/08 03:00:28;;;;;;;4.38;2.05;;;;;;;11.32;100.00;96423.84;5002131;28;20045;-67
2022/06/08 03:03:01;;;;;;;2.40;1.88;;;;;;;11.38;100.00;96425.09;4970465;28;20046;-67
2022/06/08 03:05:37;;;;;;;2.92;2.13;;;;;;;11.39;100.00;96420.41;4992817;28;20054;-68
2022/06/08 03:08:12;;;;;;;5.03;2.45;;;;;;;11.45;100.00;96411.44;4999151;28;20053;-63
2022/06/08 03:10:41;;;;;;;3.80;2.13;;;;;;;11.54;100.00;96410.31;5000799;28;20057;-67
2022/06/08 03:13:16;;;;;;;2.92;1.92;;;;;;;11.55;100.00;96409.16;4995855;28;20046;-67
2022/06/08 03:15:48;;;;;;;5.90;2.70;;;;;;;11.54;100.00;96408.38;4996666;28;20110;-67
2022/06/08 03:18:13;;;;;;;2.72;1.67;;;;;;;11.50;100.00;96407.56;4994888;28;20042;-66
2022/06/08 03:20:39;;;;;;;4.75;2.70;;;;;;;11.08;100.00;96400.53;5000283;28;20042;-67
2022/06/08 03:23:05;;;;;;;3.55;2.20;;;;;;;10.77;100.00;96397.09;5013023;28;20045;-67
2022/06/08 03:25:31;;;;;;;4.43;2.10;;;;;;;10.70;100.00;96388.81;5019851;28;20041;-67
2022/06/08 03:27:57;;;;;;;6.22;2.35;;;;;;;10.74;100.00;96392.38;5021383;28;20104;-67
2022/06/08 03:30:22;;;;;;;5.68;2.30;;;;;;;10.85;100.00;96392.47;5012537;28;20061;-66
2022/06/08 03:32:48;;;;;;;4.15;2.20;;;;;;;10.94;100.00;96392.19;5014251;28;20057;-66
2022/06/08 03:35:14;;;;;;;4.40;2.20;;;;;;;11.06;100.00;96392.69;5008376;28;20052;-65
2022/06/08 03:37:39;;;;;;;3.65;2.28;;;;;;;11.19;100.00;96397.91;5001823;28;20054;-66
2022/06/08 03:40:06;;;;;;;5.30;2.13;;;;;;;11.28;100.00;96409.34;5004464;28;20049;-66
2022/06/08 03:42:31;;;;;;;4.47;2.60;;;;;;;11.42;100.00;96400.44;5007959;28;20136;-67
2022/06/08 03:44:57;;;;;;;3.78;2.00;;;;;;;11.54;100.00;96399.34;5007631;28;20104;-66
2022/06/08 03:47:29;;;;;;;2.63;1.88;;;;;;;11.63;100.00;96399.81;5001179;28;20830;-67
2022/06/08 03:49:59;;;;;;;5.43;2.15;;;;;;;11.69;100.00;96392.81;4984059;28;20046;-68
2022/06/08 03:52:29;;;;;;;3.20;1.60;;;;;;;11.79;100.00;96394.06;4993430;28;20045;-67
2022/06/08 03:54:59;;;;;;;4.50;1.90;;;;;;;11.87;100.00;96395.69;5001019;28;20049;-68
2022/06/08 03:57:26;;;;;;;4.18;1.48;;;;;;;11.99;100.00;96398.16;4994493;28;20045;-67
2022/06/08 03:59:52;;;;;;;2.15;1.58;;;;;;;12.12;100.00;96387.63;5007982;28;20151;-68
2022/06/08 04:02:17;;;;;;;3.03;1.55;;;;;;;12.24;100.00;96389.25;4998764;28;20087;-67
2022/06/08 04:04:43;;;;;;;3.20;1.48;;;;;;;12.34;100.00;96387.72;4999813;28;20120;-67
2022/06/08 04:07:10;;;;;;;3.10;1.75;;;;;;;12.46;100.00;96392.06;4992902;28;20093;-67
2022/06/08 04:09:35;;;;;;;2.78;1.23;;;;;;;12.53;100.00;96392.91;5000715;28;20038;-67
2022/06/08 04:12:01;;;;;;;2.30;1.60;;;;;;;12.59;100.00;96393.31;4999880;28;20411;-67
2022/06/08 04:14:27;;;;;;;3.42;1.88;;;;;;;12.66;100.00;96389.78;4994769;28;20060;-67
2022/06/08 04:16:52;;;;;;;4.93;1.95;;;;;;;12.76;100.00;96392.56;4999195;28;20501;-67
2022/06/08 04:19:19;;;;;;;2.33;1.50;;;;;;;12.96;100.00;96390.28;4996050;28;20041;-66
2022/06/08 04:21:45;;;;;;;4.20;1.60;;;;;;;13.11;100.00;96387.56;5010828;28;20044;-67
2022/06/08 04:24:13;;;;;;;3.67;1.73;;;;;;;12.82;100.00;96382.78;5006074;28;20465;-67
2022/06/08 04:26:38;;;;;;;4.18;1.30;;;;;;;12.72;100.00;96386.28;4998246;28;20058;-67
2022/06/08 04:29:06;;;;;;;6.70;1.45;;;;;;;12.82;100.00;96376.50;4994971;28;20423;-66
2022/06/08 04:31:34;;;;;;;3.28;1.30;;;;;;;12.91;100.00;96367.88;4986927;28;20132;-67
2022/06/08 04:34:04;;;;;;;3.42;1.20;;;;;;;12.28;100.00;96368.09;5003076;28;20041;-69
2022/06/08 04:36:29;;;;;;;;;;;;;;;11.82;100.00;96360.38;4996620;28;20042;-68
2022/06/08 04:38:55;;;;;;;5.43;2.08;;;;;;;11.72;100.00;96361.88;5001746;28;20008;-69
2022/06/08 04:41:21;;;;;;;7.47;1.80;;;;;;;11.21;100.00;96351.72;4999531;28;20068;-68
2022/06/08 04:43:47;;;;;;;3.67;2.03;;;;;;;11.20;100.00;96352.84;5007944;28;20038;-67
2022/06/08 04:46:16;;;;;;;4.43;1.90;;;;;;;11.70;100.00;96355.97;4985799;28;20050;-67
2022/06/08 04:48:44;;;;;;;8.82;1.95;;;;;;;13.08;100.00;96353.38;5006702;28;20455;-67
2022/06/08 04:51:11;;;;;;;6.22;1.60;;;;;;;14.93;100.00;96358.06;4996834;28;20050;-67
2022/06/08 04:53:38;;;;;;;4.95;1.00;;;;;;;17.04;100.00;96354.38;5003912;28;20046;-66
2022/06/08 04:56:04;;;;;;;1.73;0.98;;;;;;;18.91;93.92;96351.00;4997303;28;20038;-69
2022/06/08 04:58:29;;;;;;;3.60;0.88;;;;;;;20.40;83.08;96350.50;5003267;28;20046;-67
2022/06/08 05:00:55;;;;;;;1.80;0.77;;;;;;;21.47;75.85;96361.69;5004468;28;20038;-67
2022/06/08 05:03:21;;;;;;;6.20;0.70;;;;;;;22.45;69.40;96357.19;4997356;28;20037;-68
2022/06/08 05:05:47;;;;;;;4.03;0.88;;;;;;;23.12;65.54;96353.13;5002642;28;20046;-67
2022/06/08 05:08:13;;;;;;;2.30;0.75;;;;;;;24.32;61.38;96349.81;4998257;28;20060;-68
2022/06/08 05:10:39;;;;;;;2.80;0.85;;;;;;;25.30;55.72;96349.78;4995206;28;20434;-68
2022/06/08 05:13:07;;;;;;;1.65;0.77;;;;;;;25.59;55.00;96349.19;4999439;28;20038;-69
2022/06/08 05:15:35;;;;;;;2.67;0.70;;;;;;;26.94;51.75;96351.13;5001116;28;20107;-67
2022/06/08 05:18:02;;;;;;;2.00;0.77;;;;;;;25.55;56.12;96343.75;5003322;28;20205;-66
2022/06/08 05:20:28;;;;;;;2.28;0.70;;;;;;;24.95;57.09;96353.00;4997346;28;20053;-68
2022/06/08 05:22:54;;;;;;;3.78;0.80;;;;;;;19.86;82.13;96346.38;5025358;28;20034;-66
2022/06/08 05:25:27;;;;;;;3.10;1.33;;;;;;;20.49;80.82;96347.06;5015957;28;20083;-68
2022/06/08 05:27:53;;;;;;;2.30;0.93;;;;;;;20.44;81.51;96337.25;5022427;28;20217;-67
2022/06/08 05:30:19;;;;;;;3.03;1.20;;;;;;;17.80;97.84;96342.84;5017693;28;20171;-66
2022/06/08 05:32:44;;;;;;;6.70;1.25;;;;;;;20.08;90.10;96326.34;5016416;28;20042;-67
2022/06/08 05:35:11;;;;;;;3.88;1.02;;;;;;;20.71;79.39;96336.13;4995963;28;20045;-67
2022/06/08 05:37:37;;;;;;;4.65;0.70;;;;;;;22.58;71.00;96332.00;5002742;28;20049;-67
2022/06/08 05:40:05;;;;;;;3.08;0.73;;;;;;;23.32;66.69;96333.16;5001689;28;20038;-70
2022/06/08 05:42:31;;;;;;;4.80;1.25;;;;;;;22.15;73.03;96328.72;4999871;28;20061;-67
2022/06/08 05:44:57;;;;;;;2.47;0.90;;;;;;;21.08;76.42;96330.25;5002393;28;20507;-67
2022/06/08 05:47:23;;;;;;;1.90;0.82;;;;;;;19.20;88.31;96334.47;4996652;28;20879;-67
2022/06/08 05:49:48;;;;;;;3.75;0.85;;;;;;;19.14;91.47;96332.66;5002087;28;20605;-67
2022/06/08 05:52:14;;;;;;;3.03;0.98;;;;;;;18.54;94.88;96341.84;4996986;28;20132;-67
2022/06/08 05:54:39;;;;;;;1.63;0.77;;;;;;;17.51;100.00;96339.78;5002679;28;20046;-67
2022/06/08 05:57:05;;;;;;;4.82;1.25;;;;;;;19.10;90.44;96335.50;4994850;28;20137;-65
2022/06/08 05:59:31;;;;;;;3.67;1.45;;;;;;;19.14;93.09;96332.66;5002287;28;20045;-66
2022/06/08 06:01:56;;;;;;;5.47;1.25;;;;;;;20.43;81.62;96332.91;5010455;28;20045;-67
2022/06/08 06:04:22;;;;;;;3.65;0.90;;;;;;;19.90;85.08;96320.47;4996096;28;20365;-66
2022/06/08 06:06:48;;;;;;;3.05;0.98;;;;;;;19.80;86.31;96320.31;5000449;28;20042;-66
2022/06/08 06:09:15;;;;;;;4.47;1.10;;;;;;;19.88;85.70;96318.16;4997354;28;20042;-67
2022/06/08 06:11:41;;;;;;;2.75;1.00;;;;;;;21.77;74.13;96327.63;5002722;28;20049;-67
2022/06/08 06:14:08;;;;;;;3.05;1.00;;;;;;;21.69;71.88;96320.72;4995554;28;20038;-67
2022/06/08 06:16:33;;;;;;;3.08;1.02;;;;;;;21.90;74.36;96310.09;5000487;28;20073;-66
2022/06/08 06:18:59;;;;;;;1.85;1.00;;;;;;;21.56;75.16;96309.63;5001084;28;20447;-67
2022/06/08 06:21:25;;;;;;;4.85;0.90;;;;;;;22.38;72.95;96315.59;5013802;28;20042;-67
2022/06/08 06:23:52;;;;;;;2.15;0.80;;;;;;;21.70;73.93;96310.38;5023431;28;20052;-68
2022/06/08 06:26:18;;;;;;;2.28;1.13;;;;;;;21.50;78.58;96305.03;4995956;28;20046;-65
2022/06/08 06:28:43;;;;;;;2.15;0.70;;;;;;;23.73;67.27;96299.56;5002281;28;20491;-67
2022/06/08 06:31:16;;;;;;;4.70;1.00;;;;;;;25.66;58.23;96301.19;4994542;28;20050;-67
2022/06/08 06:33:42;;;;;;;3.30;0.90;;;;;;;27.13;50.44;96303.91;5003840;28;20498;-66
2022/06/08 06:36:07;;;;;;;2.67;0.80;;;;;;;27.59;48.37;96296.94;4993468;28;20045;-65
2022/06/08 06:38:33;;;;;;;5.60;1.30;;;;;;;27.01;50.45;96294.53;5001652;28;20041;-66
2022/06/08 06:40:59;;;;;;;5.00;2.20;;;;;;;26.53;51.42;96300.34;4994586;28;20112;-66
2022/06/08 06:43:25;;;;;;;4.13;1.20;;;;;;;24.77;57.91;96286.63;4994916;28;20046;-65
2022/06/08 06:45:50;;;;;;;1.88;0.88;;;;;;;25.84;56.30;96303.06;4999781;28;20046;-66
2022/06/08 06:48:15;;;;;;;2.72;0.93;;;;;;;25.97;55.91;96297.25;4991975;28;20073;-69
2022/06/08 06:50:41;;;;;;;2.80;0.98;;;;;;;26.61;52.38;96298.72;5007710;28;20069;-65
2022/06/08 06:53:06;;;;;;;1.58;0.70;;;;;;;27.43;52.48;96284.97;4997241;28;20042;-65
2022/06/08 06:55:33;;;;;;;7.10;1.20;;;;;;;28.73;46.48;96289.31;5000619;28;20185;-67
2022/06/08 06:57:58;;;;;;;2.85;0.90;;;;;;;27.68;46.74;96291.19;5002198;28;20038;-64
2022/06/08 07:00:25;;;;;;;5.40;0.70;;;;;;;28.26;41.15;96294.19;5002033;28;20037;-64
2022/06/08 07:02:51;;;;;;;1.70;0.70;;;;;;;28.91;41.83;96293.06;5011255;28;20034;-65
2022/06/08 07:05:24;;;;;;;7.68;0.75;;;;;;;28.03;44.78;96298.78;4994236;28;20053;-66
2022/06/08 07:07:50;;;;;;;3.22;0.70;;;;;;;29.51;39.49;96288.38;5000047;28;20057;-67
2022/06/08 07:10:16;;;;;;;2.85;0.90;;;;;;;28.59;42.63;96288.19;4997048;28;20050;-65
2022/06/08 07:12:42;;;;;;;2.80;1.08;;;;;;;28.34;40.31;96289.69;5002059;28;20136;-66
2022/06/08 07:15:11;;;;;;;5.13;0.90;;;;;;;30.52;36.86;96284.41;4997146;28;20128;-65
2022/06/08 07:17:37;;;;;;;4.35;0.88;;;;;;;28.16;40.73;96282.31;5001452;28;20574;-66
2022/06/08 07:20:04;;;;;;;3.55;1.15;;;;;;;29.04;41.16;96272.91;4997738;28;20121;-69
2022/06/08 07:22:30;;;;;;;4.28;0.85;;;;;;;30.26;38.04;96276.13;5017156;28;20188;-66
2022/06/08 07:24:55;;;;;;;4.20;0.88;;;;;;;30.83;37.31;96280.63;5020396;28;20037;-67
2022/06/08 07:27:22;;;;;;;4.70;0.73;;;;;;;31.13;36.54;96282.94;5015366;28;20510;-66
2022/06/08 07:29:48;;;;;;;3.72;0.90;;;;;;;29.79;37.02;96273.66;5021549;28;20064;-66
2022/06/08 07:32:15;;;;;;;3.63;1.05;;;;;;;28.16;40.74;96273.09;5014780;28;20494;-68
2022/06/08 07:34:40;;;;;;;9.20;1.30;;;;;;;28.80;39.92;96259.91;5008755;28;20037;-67
2022/06/08 07:37:06;;;;;;;7.47;1.60;;;;;;;27.75;42.50;96259.81;4994883;28;20045;-65
2022/06/08 07:39:32;;;;;;;2.92;1.10;;;;;;;24.54;50.68;96255.28;5003843;28;20056;-65
2022/06/08 07:41:58;;;;;;;2.88;1.10;;;;;;;24.92;49.46;96255.91;5002528;28;20057;-64
2022/06/08 07:44:23;;;;;;;6.13;0.82;;;;;;;24.11;53.86;96248.00;4995746;28;20877;-65
2022/06/08 07:46:49;;;;;;;3.47;1.00;;;;;;;24.45;53.87;96241.25;5001092;28;20050;-67
2022/06/08 07:52:01;;;;;;;5.65;1.13;;;;;;;25.58;49.22;96241.09;5000461;28;20073;-64
2022/06/08 07:54:28;;;;;;;6.97;1.17;;;;;;;25.88;49.59;96236.34;4993707;28;20198;-64
2022/06/08 07:56:54;;;;;;;3.65;1.17;;;;;;;25.42;47.76;96239.47;5000125;28;20487;-65
2022/06/08 07:59:22;;;;;;;4.25;0.90;;;;;;;26.21;48.45;96229.81;4994579;28;20128;-67
2022/06/08 08:01:48;;;;;;;7.57;1.27;;;;;;;26.87;44.29;96231.47;5004422;28;20064;-65
2022/06/08 08:04:14;;;;;;;5.93;1.13;;;;;;;26.54;46.26;96228.09;4999585;28;20049;-66
2022/06/08 08:06:40;;;;;;;5.18;0.90;;;;;;;26.52;46.33;96222.94;5012415;28;20058;-66
2022/06/08 08:09:09;;;;;;;2.90;1.10;;;;;;;25.18;50.04;96225.44;5005344;28;20038;-66
2022/06/08 08:11:35;;;;;;;;;;;;;;;25.50;49.25;96218.25;5007145;28;20075;-64
2022/06/08 08:14:00;;;;;;;4.07;1.10;;;;;;;24.55;51.09;96211.25;5002571;28;20374;-66
2022/06/08 08:16:25;;;;;;;4.03;1.15;;;;;;;24.28;50.99;96204.47;4996576;28;20289;-67
2022/06/08 08:18:51;;;;;;;3.85;1.05;;;;;;;23.56;54.03;96196.41;5008902;28;20561;-66
2022/06/08 08:21:16;;;;;;;7.50;1.20;;;;;;;23.37;56.23;96195.66;4999981;28;20108;-66
2022/06/08 08:23:41;;;;;;;3.53;1.30;;;;;;;23.09;58.64;96197.63;5014256;28;20038;-66
2022/06/08 08:26:07;;;;;;;6.95;1.33;;;;;;;23.16;59.62;96196.56;5018554;28;20033;-67
2022/06/08 08:28:32;;;;;;;4.18;1.08;;;;;;;23.68;57.22;96200.31;5024266;28;20060;-67
2022/06/08 08:30:58;;;;;;;3.95;1.05;;;;;;;23.90;55.03;96193.81;5009797;28;20045;-64
2022/06/08 08:33:23;;;;;;;5.78;1.38;;;;;;;23.36;58.34;96190.53;4999795;28;20133;-66
2022/06/08 08:35:50;;;;;;;3.13;1.00;;;;;;;23.28;57.69;96181.66;5018068;28;20037;-65
2022/06/08 08:38:15;;;;;;;7.72;1.35;;;;;;;23.64;54.11;96186.50;5010019;28;20107;-64
2022/06/08 08:40:58;;;;;;;5.00;1.45;;;;;;;24.00;54.07;96181.34;5012188;28;20820;-65
2022/06/08 08:43:28;;;;;;;5.68;1.10;;;;;;;24.24;52.51;96181.47;5000136;28;21578;-66
2022/06/08 08:46:06;;;;;;;5.90;1.10;;;;;;;23.55;53.74;96178.13;5002249;28;20068;-65
2022/06/08 08:48:42;;;;;;;7.50;2.38;;;;;;;22.85;55.58;96175.00;5004137;28;20042;-64
2022/06/08 08:51:22;;;;;;;4.88;1.40;;;;;;;22.69;54.82;96173.28;4998535;28;20046;-65
2022/06/08 08:54:10;;;;;;;3.28;1.13;;;;;;;23.05;53.90;96166.28;5008326;28;20041;-66
2022/06/08 08:56:38;;;;;;;4.30;1.50;;;;;;;22.95;54.20;96159.84;4996806;28;20503;-64
2022/06/08 08:59:16;;;;;;;5.43;0.95;;;;;;;22.95;54.57;96162.63;4991880;28;20049;-67
2022/06/08 09:01:44;;;;;;;5.82;1.50;;;;;;;23.27;53.07;96166.91;4997539;28;20499;-64
2022/06/08 09:04:25;;;;;;;7.85;0.90;;;;;;;24.00;50.02;96153.38;4994711;28;20049;-65
2022/06/08 09:06:51;;;;;;;4.63;1.17;;;;;;;24.26;50.59;96153.03;4992076;28;20046;-65
2022/06/08 09:09:21;;;;;;;3.20;1.13;;;;;;;24.45;46.69;96154.47;4986028;28;20092;-65
2022/06/08 09:11:47;;;;;;;4.47;1.08;;;;;;;24.39;47.55;96145.19;5007891;28;20042;-64
2022/06/08 09:15:00;;;;;;;4.70;1.50;;;;;;;24.64;48.62;96146.81;4986409;28;20042;-65
2022/06/08 09:18:00;;;;;;;4.10;1.35;;;;;;;24.42;49.06;96139.41;4985251;28;20081;-66
2022/06/08 09:20:31;;;;;;;6.15;1.20;;;;;;;24.38;47.93;96133.22;4996117;28;20044;-65
2022/06/08 09:23:02;;;;;;;2.50;0.88;;;;;;;24.65;46.14;96134.38;5003824;28;20502;-65
2022/06/08 09:25:33;;;;;;;3.20;0.82;;;;;;;24.27;46.74;96134.97;4988157;28;20503;-65
2022/06/08 09:27:59;;;;;;;6.28;0.80;;;;;;;24.18;47.34;96128.16;4987814;28;20082;-67
2022/06/08 09:30:27;;;;;;;6.55;0.80;;;;;;;24.54;45.64;96125.72;4997046;28;20096;-65
2022/06/08 09:32:59;;;;;;;5.35;1.05;;;;;;;24.35;45.89;96128.56;4994093;28;20042;-66
2022/06/08 09:35:34;;;;;;;6.05;0.98;;;;;;;23.73;46.84;96123.41;4994164;28;20948;-67
2022/06/08 09:38:15;;;;;;;5.28;1.30;;;;;;;23.81;48.07;96128.25;4993290;28;20064;-66
2022/06/08 09:41:01;;;;;;;6.35;1.10;;;;;;;23.81;44.06;96130.28;4991502;28;20050;-67
2022/06/08 09:43:55;;;;;;;4.78;0.90;;;;;;;23.84;42.35;96134.91;5010143;28;20137;-68
2022/06/08 09:51:25;;;;;;;5.70;0.88;;;;;;;23.97;45.06;96131.97;4991520;28;20050;-67
2022/06/08 09:52:04;;;;;;;5.53;0.70;;;;;;;24.10;40.16;96121.34;4989254;28;20046;-67
2022/06/08 09:54:55;;;;;;;2.72;0.50;;;;;;;23.50;41.69;96120.03;4984620;28;20141;-67
2022/06/08 09:57:56;;;;;;;3.70;0.60;;;;;;;23.51;41.56;96120.81;4984282;28;20057;-67
2022/06/08 10:00:36;;;;;;;4.85;1.35;;;;;;;23.55;42.59;96107.44;4991275;28;20371;-64
2022/06/08 10:03:32;;;;;;;6.40;1.33;;;;;;;23.63;41.55;96111.50;5000469;28;20416;-69
2022/06/08 10:06:11;;;;;;;5.97;1.33;;;;;;;23.77;41.08;96108.03;4997639;28;20135;-68
2022/06/08 10:08:58;;;;;;;3.40;0.70;;;;;;;24.43;39.28;96106.59;4993184;28;20049;-67
2022/06/08 10:11:50;;;;;;;10.23;3.17;;;;;;;24.66;39.96;96098.75;4986894;28;20133;-68
2022/06/08 10:14:43;;;;;;;5.68;2.13;;;;;;;24.78;37.81;96098.53;4985132;28;20041;-64
2022/06/08 10:17:23;;;;;;;5.32;0.95;;;;;;;24.32;36.45;96103.56;4982054;28;20139;-67
2022/06/08 10:20:00;;;;;;;;;;;;;;;24.56;39.04;96090.41;5008086;28;20096;-65
2022/06/08 10:22:30;;;;;;;4.13;0.73;;;;;;;24.69;35.66;96084.56;4988596;28;19921;-66
2022/06/08 10:25:03;;;;;;;4.85;0.70;;;;;;;24.41;35.24;96097.91;4995528;28;20481;-65
2022/06/08 10:27:42;;;;;;;3.38;0.50;;;;;;;24.81;34.52;96096.78;4982805;28;20045;-67
2022/06/08 10:30:29;;;;;;;4.70;0.60;;;;;;;24.62;35.50;96087.72;4984168;28;20054;-65
2022/06/08 10:33:10;;;;;;;5.35;0.95;;;;;;;22.41;40.06;96069.94;5006162;28;20117;-65
2022/06/08 10:35:46;;;;;;;4.35;0.70;;;;;;;23.36;39.86;96062.75;4993533;28;20053;-67
2022/06/08 10:38:34;;;;;;;3.15;0.77;;;;;;;22.73;40.06;96067.06;4985922;28;20133;-66
2022/06/08 10:44:01;;;;;;;4.72;0.82;;;;;;;22.89;38.17;96061.97;4999141;28;20499;-67
2022/06/08 10:46:46;;;;;;;3.75;0.70;;;;;;;23.71;36.54;96059.59;4988967;28;20400;-67
2022/06/08 10:49:18;;;;;;;3.72;0.95;;;;;;;24.41;36.44;96062.28;4982941;28;20049;-67
2022/06/08 10:51:43;;;;;;;4.47;0.75;;;;;;;23.12;38.79;96054.25;4982184;28;20185;-65
2022/06/08 10:57:47;;;;;;;3.97;0.63;;;;;;;22.43;42.72;96042.34;4986107;28;20088;-65
2022/06/08 11:00:19;;;;;;;8.85;1.05;;;;;;;23.36;41.03;96042.44;4989361;28;20077;-67
2022/06/08 11:03:18;;;;;;;3.10;0.77;;;;;;;23.97;38.54;96029.25;4996835;28;20049;-62
2022/06/08 11:05:47;;;;;;;4.22;0.85;;;;;;;23.83;37.54;96029.94;4991160;28;20038;-65
2022/06/08 11:08:22;;;;;;;6.45;0.90;;;;;;;23.79;39.12;96023.69;4991400;28;20038;-63
2022/06/08 11:10:48;;;;;;;2.85;0.70;;;;;;;23.11;40.44;96030.34;4997491;28;20042;-64
2022/06/08 11:13:23;;;;;;;4.82;1.23;;;;;;;23.55;39.94;96018.00;4986124;28;20093;-64
2022/06/08 11:16:30;;;;;;;2.15;0.50;;;;;;;23.79;38.97;96016.09;4990938;28;20372;-65
2022/06/08 11:19:04;;;;;;;2.33;0.60;;;;;;;23.58;39.46;96011.50;4947640;28;20062;-65
2022/06/08 11:21:46;;;;;;;6.22;1.02;;;;;;;23.54;41.46;96008.84;4975098;28;20067;-64
2022/06/08 11:24:36;;;;;;;3.33;0.75;;;;;;;23.59;40.25;96018.63;4979804;28;20038;-66
2022/06/08 11:27:10;;;;;;;3.42;0.60;;;;;;;22.95;39.73;96020.22;4998206;28;20085;-63
2022/06/08 11:29:48;;;;;;;3.13;0.90;;;;;;;22.83;40.96;96015.56;4994667;28;20054;-66
2022/06/08 11:32:24;;;;;;;4.47;1.08;;;;;;;22.59;42.11;96009.81;4992396;28;20111;-66
2022/06/08 11:35:09;;;;;;;5.45;0.73;;;;;;;22.79;41.92;96003.78;5006486;28;20050;-66
2022/06/08 11:37:46;;;;;;;4.57;0.70;;;;;;;23.00;41.47;96004.88;5002580;28;20049;-67
2022/06/08 11:40:11;;;;;;;2.92;0.90;;;;;;;23.46;41.33;96005.63;4991687;28;20056;-65
2022/06/08 11:42:53;;;;;;;3.50;0.70;;;;;;;23.50;40.20;96001.88;5001076;28;20046;-69
2022/06/08 11:45:23;;;;;;;3.03;0.65;;;;;;;23.73;40.11;95997.63;5003195;28;20464;-64
2022/06/08 11:48:14;;;;;;;3.20;0.77;;;;;;;23.44;40.85;95994.16;4980665;28;20074;-65
2022/06/08 11:50:49;;;;;;;3.55;0.73;;;;;;;23.78;40.91;96003.34;5002539;28;20046;-66
2022/06/08 11:53:16;;;;;;;3.92;0.60;;;;;;;23.80;39.86;95995.28;4992149;28;20492;-67
2022/06/08 11:56:33;;;;;;;6.05;1.70;;;;;;;23.60;40.37;95998.56;4997739;28;20046;-65
2022/06/08 11:59:00;;;;;;;5.00;0.98;;;;;;;23.82;41.37;95989.22;5013607;28;20052;-67
2022/06/08 12:01:38;;;;;;;3.88;0.77;;;;;;;23.50;42.48;95987.91;5004777;28;20046;-65
2022/06/08 12:04:16;;;;;;;5.93;1.08;;;;;;;24.22;40.94;95986.09;5008584;28;20045;-62